Time;durP1;ratioP1;P1;durP2;ratioP2;P2;SDS_P1;SDS_P2;PMS_P1;PMS_P2;Temp;Humidity;BMP_temperature;BMP_pressure;BME280_temperature;BME280_humidity;BME280_pressure;Samples;Min_cycle;Max_cycle;Signal;HPM_P1;HPM_P2
2023/02/20 00:01:56;;;;;;;23.40;12.98;;;7.80;99.90;;;;;;6150468;23;20456;-74
2023/02/20 00:04:21;;;;;;;21.60;13.95;;;7.80;99.90;;;;;;6148925;23;20009;-75
2023/02/20 00:06:47;;;;;;;22.98;13.73;;;7.80;99.90;;;;;;6149767;23;20491;-74
2023/02/20 00:09:13;;;;;;;23.05;13.70;;;7.80;99.90;;;;;;6150803;23;20009;-74
2023/02/20 00:11:38;;;;;;;20.55;12.85;;;7.80;99.90;;;;;;6151714;23;20007;-74
2023/02/20 00:14:04;;;;;;;19.95;11.88;;;7.90;99.90;;;;;;6150702;23;20012;-74
2023/02/20 00:16:30;;;;;;;27.45;13.93;;;7.90;99.90;;;;;;6149317;23;20014;-74
2023/02/20 00:18:55;;;;;;;22.13;12.82;;;7.90;99.90;;;;;;6148381;23;20007;-75
2023/02/20 00:21:21;;;;;;;19.83;12.52;;;7.90;99.90;;;;;;6150312;23;20006;-74
2023/02/20 00:23:46;;;;;;;22.38;12.95;;;7.90;99.90;;;;;;6149550;23;20009;-74
2023/02/20 00:26:13;;;;;;;26.83;13.13;;;7.90;99.90;;;;;;6150326;23;20002;-74
2023/02/20 00:28:41;;;;;;;23.23;13.23;;;7.90;99.90;;;;;;6147727;23;20063;-75
2023/02/20 00:31:10;;;;;;;24.90;12.80;;;7.90;99.90;;;;;;6147511;23;20010;-74
2023/02/20 00:33:36;;;;;;;23.15;13.65;;;8.00;99.90;;;;;;6123437;23;20543;-75
2023/02/20 00:36:03;;;;;;;26.75;14.43;;;7.90;99.90;;;;;;6148002;23;20002;-74
2023/02/20 00:38:28;;;;;;;26.58;14.75;;;7.80;99.90;;;;;;6149389;23;20076;-75
2023/02/20 00:40:54;;;;;;;29.20;15.77;;;7.80;99.90;;;;;;6150021;23;20021;-75
2023/02/20 00:43:19;;;;;;;33.65;17.65;;;7.70;99.90;;;;;;6151251;23;20001;-74
2023/02/20 00:45:45;;;;;;;26.27;16.15;;;7.80;99.90;;;;;;6151214;23;20007;-74
2023/02/20 00:48:10;;;;;;;30.67;15.43;;;7.70;99.90;;;;;;6150192;23;20067;-75
2023/02/20 00:50:36;;;;;;;31.45;16.55;;;7.80;99.90;;;;;;6123361;23;20116;-74
2023/02/20 00:53:02;;;;;;;28.08;15.20;;;7.80;99.90;;;;;;6151167;23;20005;-74
2023/02/20 00:55:28;;;;;;;28.85;16.52;;;7.80;99.90;;;;;;6151408;23;20002;-74
2023/02/20 00:57:54;;;;;;;27.05;16.13;;;7.80;99.90;;;;;;6149524;23;20002;-74
2023/02/20 01:00:28;;;;;;;26.77;15.13;;;7.70;99.90;;;;;;6153538;23;20006;-75
2023/02/20 01:02:55;;;;;;;32.55;16.02;;;7.70;99.90;;;;;;6150549;23;20330;-74
2023/02/20 01:05:20;;;;;;;30.33;16.25;;;7.70;99.90;;;;;;6153852;23;20006;-74
2023/02/20 01:07:46;;;;;;;32.08;16.58;;;7.80;99.90;;;;;;6153163;23;20051;-74
2023/02/20 01:10:13;;;;;;;35.03;17.17;;;7.70;99.90;;;;;;6152005;23;20010;-74
2023/02/20 01:12:39;;;;;;;29.23;15.93;;;7.70;99.90;;;;;;6151675;23;20028;-74
2023/02/20 01:15:09;;;;;;;32.88;17.80;;;7.70;99.90;;;;;;6152503;23;20434;-74
2023/02/20 01:17:35;;;;;;;30.75;16.92;;;7.70;99.90;;;;;;6154084;23;20010;-74
2023/02/20 01:20:00;;;;;;;30.92;16.73;;;7.70;99.90;;;;;;6153194;23;20012;-73
2023/02/20 01:22:26;;;;;;;31.67;17.08;;;7.70;99.90;;;;;;6153996;23;20374;-74
2023/02/20 01:24:51;;;;;;;34.63;16.90;;;7.70;99.90;;;;;;6153954;23;20002;-75
2023/02/20 01:27:17;;;;;;;27.60;16.25;;;7.70;99.90;;;;;;6155140;23;20474;-74
2023/02/20 01:29:43;;;;;;;32.70;17.77;;;7.60;99.90;;;;;;6153878;23;20017;-75
2023/02/20 01:32:11;;;;;;;29.48;15.95;;;7.60;99.90;;;;;;6154632;23;20067;-74
2023/02/20 01:34:37;;;;;;;33.92;17.80;;;7.60;99.90;;;;;;6154369;23;20125;-74
2023/02/20 01:37:03;;;;;;;34.40;17.80;;;7.60;99.90;;;;;;6152933;23;20031;-74
2023/02/20 01:39:30;;;;;;;37.85;18.23;;;7.60;99.90;;;;;;6155337;23;20001;-74
2023/02/20 01:42:05;;;;;;;34.38;17.30;;;7.60;99.90;;;;;;6153491;23;20005;-74
2023/02/20 01:44:36;;;;;;;38.47;18.15;;;7.50;99.90;;;;;;6154131;23;20005;-75
2023/02/20 01:47:07;;;;;;;32.65;17.98;;;7.50;99.90;;;;;;6155418;23;20002;-74
2023/02/20 01:49:40;;;;;;;31.70;17.08;;;7.60;99.90;;;;;;6153574;23;20421;-74
2023/02/20 01:52:16;;;;;;;37.80;19.10;;;7.60;99.90;;;;;;6154387;23;20009;-73
2023/02/20 01:54:44;;;;;;;32.45;16.88;;;7.60;99.90;;;;;;6155730;23;20012;-74
2023/02/20 01:57:15;;;;;;;37.90;19.67;;;7.60;99.90;;;;;;6153156;23;20005;-74
2023/02/20 01:59:42;;;;;;;35.60;18.05;;;7.60;99.90;;;;;;6153999;23;20033;-74
2023/02/20 02:02:09;;;;;;;34.88;17.40;;;7.50;99.90;;;;;;6152853;23;19997;-74
2023/02/20 02:04:37;;;;;;;32.28;17.63;;;7.60;99.90;;;;;;6154892;23;20012;-74
2023/02/20 02:07:03;;;;;;;37.58;18.80;;;7.60;99.90;;;;;;6153959;23;20033;-73
2023/02/20 02:09:57;;;;;;;35.53;18.67;;;7.50;99.90;;;;;;6154264;23;20072;-73
2023/02/20 02:12:23;;;;;;;32.20;17.42;;;7.50;99.90;;;;;;6152080;23;20089;-74
2023/02/20 02:14:49;;;;;;;37.47;18.40;;;7.50;99.90;;;;;;6153878;23;20005;-74
2023/02/20 02:17:20;;;;;;;30.98;18.50;;;7.50;99.90;;;;;;6154204;23;20037;-74
2023/02/20 02:20:11;;;;;;;33.92;16.45;;;7.50;99.90;;;;;;6152377;23;20012;-74
2023/02/20 02:23:07;;;;;;;33.47;16.30;;;7.40;99.90;;;;;;6153455;23;20001;-74
2023/02/20 02:25:55;;;;;;;33.97;15.13;;;7.40;99.90;;;;;;6155503;23;20005;-74
2023/02/20 02:28:48;;;;;;;30.75;15.60;;;7.30;99.90;;;;;;6152745;23;20006;-74
2023/02/20 02:31:16;;;;;;;36.17;16.63;;;7.30;99.90;;;;;;6153108;23;20037;-74
2023/02/20 02:34:10;;;;;;;31.92;15.52;;;7.30;99.90;;;;;;6153161;23;20008;-74
2023/02/20 02:36:38;;;;;;;36.58;15.98;;;7.30;99.90;;;;;;6152841;23;20010;-74
2023/02/20 02:39:10;;;;;;;35.42;16.90;;;7.40;99.90;;;;;;6153865;23;20005;-75
2023/02/20 02:41:53;;;;;;;33.73;16.37;;;7.40;99.90;;;;;;6151540;23;20017;-74
2023/02/20 02:44:29;;;;;;;31.70;16.15;;;7.20;99.90;;;;;;6154290;23;20013;-74
2023/02/20 02:47:11;;;;;;;28.58;15.25;;;7.20;99.90;;;;;;6153402;23;20020;-74
2023/02/20 02:50:15;;;;;;;32.70;15.32;;;7.20;99.90;;;;;;6154423;23;20005;-74
2023/02/20 02:52:47;;;;;;;40.95;16.42;;;7.10;99.90;;;;;;6151817;23;20001;-74
2023/02/20 02:55:25;;;;;;;35.35;17.17;;;7.10;99.90;;;;;;6154809;23;20422;-74
2023/02/20 02:57:51;;;;;;;37.22;15.80;;;7.20;99.90;;;;;;6152868;23;20001;-74
2023/02/20 03:00:24;;;;;;;28.45;14.38;;;7.20;99.90;;;;;;6154752;23;20012;-74
2023/02/20 03:03:08;;;;;;;35.00;17.27;;;7.00;99.90;;;;;;6154112;23;19997;-74
2023/02/20 03:05:45;;;;;;;37.50;18.45;;;6.90;99.90;;;;;;6155332;23;20009;-74
2023/02/20 03:08:21;;;;;;;35.58;15.70;;;7.00;99.90;;;;;;6152739;23;19998;-74
2023/02/20 03:10:52;;;;;;;42.63;19.00;;;7.00;99.90;;;;;;6154255;23;20049;-74
2023/02/20 03:13:18;;;;;;;31.88;17.55;;;6.90;99.90;;;;;;6152923;23;20029;-74
2023/02/20 03:15:53;;;;;;;36.13;16.25;;;7.00;99.90;;;;;;6153004;23;20020;-74
2023/02/20 03:18:35;;;;;;;39.40;17.58;;;7.10;99.90;;;;;;6153712;23;20029;-74
2023/02/20 03:21:08;;;;;;;36.97;18.20;;;7.10;99.90;;;;;;6152766;23;20031;-75
2023/02/20 03:23:38;;;;;;;36.15;17.50;;;7.00;99.90;;;;;;6126789;23;20334;-74
2023/02/20 03:26:16;;;;;;;34.95;16.33;;;7.10;99.90;;;;;;6151562;23;20016;-74
2023/02/20 03:28:46;;;;;;;38.72;18.23;;;7.10;99.90;;;;;;6154531;23;20367;-75
2023/02/20 03:31:47;;;;;;;37.47;18.40;;;7.10;99.90;;;;;;6153080;23;20009;-75
2023/02/20 03:45:31;;;;;;;42.88;20.52;;;7.20;99.90;;;;;;6155268;23;20023;-75
2023/02/20 03:48:01;;;;;;;40.17;18.85;;;7.20;99.90;;;;;;6152496;23;20010;-75
2023/02/20 03:53:13;;;;;;;43.92;21.60;;;7.20;99.90;;;;;;6154363;23;20518;-74
2023/02/20 03:55:39;;;;;;;43.53;20.95;;;7.20;99.90;;;;;;6153783;23;20006;-74
2023/02/20 03:58:09;;;;;;;40.88;20.55;;;7.20;99.90;;;;;;6151380;23;20302;-74
2023/02/20 04:00:41;;;;;;;38.58;20.50;;;7.30;99.90;;;;;;6154096;23;20013;-75
2023/02/20 04:03:14;;;;;;;49.45;21.27;;;7.40;99.90;;;;;;6154628;23;20009;-74
2023/02/20 04:05:43;;;;;;;41.30;18.85;;;7.40;99.90;;;;;;6152357;23;20076;-74
2023/02/20 04:08:34;;;;;;;44.53;20.83;;;7.30;99.90;;;;;;6153478;23;20117;-74
2023/02/20 04:11:28;;;;;;;38.72;21.75;;;7.40;99.90;;;;;;6153294;23;20009;-74
2023/02/20 04:13:56;;;;;;;43.53;21.98;;;7.30;99.90;;;;;;6153853;23;20009;-74
2023/02/20 04:16:23;;;;;;;42.70;20.05;;;7.40;99.90;;;;;;6152734;23;20040;-75
2023/02/20 04:18:48;;;;;;;47.83;21.70;;;7.40;99.90;;;;;;6154044;23;20005;-75
2023/02/20 04:21:24;;;;;;;46.33;22.13;;;7.40;99.90;;;;;;6152220;23;20389;-75
2023/02/20 04:24:02;;;;;;;47.17;23.00;;;7.50;99.90;;;;;;6153182;23;20005;-75
2023/02/20 04:26:27;;;;;;;49.30;21.25;;;7.40;99.90;;;;;;6152597;23;20477;-74
2023/02/20 04:28:53;;;;;;;37.92;19.20;;;7.50;99.90;;;;;;6153490;23;20005;-75
2023/02/20 04:31:20;;;;;;;38.65;19.58;;;7.50;99.90;;;;;;6153668;23;20065;-74
2023/02/20 04:33:45;;;;;;;41.05;20.52;;;7.60;99.90;;;;;;6152197;23;20002;-75
2023/02/20 04:36:11;;;;;;;44.67;21.02;;;7.50;99.90;;;;;;6152582;23;20008;-74
2023/02/20 04:38:37;;;;;;;40.90;19.20;;;7.60;99.90;;;;;;6153822;23;20113;-75
2023/02/20 04:41:03;;;;;;;46.08;20.05;;;7.50;99.90;;;;;;6153393;23;20006;-75
2023/02/20 04:43:28;;;;;;;39.17;19.13;;;7.50;99.90;;;;;;6152466;23;20006;-74
2023/02/20 04:45:54;;;;;;;37.63;19.73;;;7.50;99.90;;;;;;6153454;23;20048;-74
2023/02/20 04:48:20;;;;;;;42.08;20.45;;;7.60;99.90;;;;;;6154481;23;20010;-74
2023/02/20 04:50:45;;;;;;;40.83;20.02;;;7.50;99.90;;;;;;6151880;23;20018;-75
2023/02/20 04:53:11;;;;;;;40.72;19.30;;;7.60;99.90;;;;;;6154737;23;20001;-74
2023/02/20 04:55:36;;;;;;;47.22;20.52;;;7.60;99.90;;;;;;6128987;23;20009;-75
2023/02/20 04:58:02;;;;;;;41.70;22.00;;;7.60;99.90;;;;;;6154751;23;20048;-74
2023/02/20 05:00:28;;;;;;;45.08;21.60;;;7.60;99.90;;;;;;6156075;23;20002;-74
2023/02/20 05:02:54;;;;;;;42.80;20.60;;;7.60;99.90;;;;;;6153496;23;20044;-74
2023/02/20 05:05:22;;;;;;;40.78;19.02;;;7.60;99.90;;;;;;6154963;23;20005;-75
2023/02/20 05:07:48;;;;;;;39.47;19.27;;;7.50;99.90;;;;;;6154699;23;20002;-75
2023/02/20 05:10:19;;;;;;;38.70;17.45;;;7.50;99.90;;;;;;6156680;23;20013;-74
2023/02/20 05:12:45;;;;;;;39.75;19.10;;;7.60;99.90;;;;;;6154365;23;20033;-74
2023/02/20 05:15:11;;;;;;;36.28;16.67;;;7.60;99.90;;;;;;6127648;23;20013;-74
2023/02/20 05:17:36;;;;;;;38.63;18.45;;;7.60;99.90;;;;;;6155338;23;20006;-75
2023/02/20 05:20:04;;;;;;;41.05;17.85;;;7.60;99.90;;;;;;6152666;23;20496;-75
2023/02/20 05:22:29;;;;;;;35.78;18.30;;;7.70;99.90;;;;;;6153613;23;20501;-75
2023/02/20 05:24:55;;;;;;;36.20;16.77;;;7.70;99.90;;;;;;6155593;23;20009;-74
2023/02/20 05:27:22;;;;;;;39.75;17.42;;;7.70;99.90;;;;;;6154909;23;20088;-74
2023/02/20 05:29:53;;;;;;;34.72;17.08;;;7.70;99.90;;;;;;6154440;23;20477;-74
2023/02/20 05:32:20;;;;;;;43.88;17.65;;;7.70;99.90;;;;;;6155253;23;20427;-75
2023/02/20 05:34:46;;;;;;;39.78;18.05;;;7.70;99.90;;;;;;6155691;23;20101;-74
2023/02/20 05:37:14;;;;;;;35.85;16.65;;;7.70;99.90;;;;;;6155547;23;20112;-75
2023/02/20 05:39:40;;;;;;;38.00;16.42;;;7.70;99.90;;;;;;6154352;23;20025;-74
2023/02/20 05:42:06;;;;;;;36.70;16.00;;;7.70;99.90;;;;;;6154406;23;20033;-75
2023/02/20 05:44:32;;;;;;;41.83;16.55;;;7.80;99.90;;;;;;6156374;23;20017;-75
2023/02/20 05:46:57;;;;;;;32.53;15.15;;;7.90;99.90;;;;;;6152791;23;20009;-74
2023/02/20 05:49:23;;;;;;;34.03;15.52;;;7.90;99.90;;;;;;6155728;23;20009;-75
2023/02/20 05:51:49;;;;;;;35.58;15.75;;;7.90;99.90;;;;;;6152063;23;20430;-74
2023/02/20 05:54:16;;;;;;;39.35;16.98;;;8.00;99.90;;;;;;6155321;23;20005;-74
2023/02/20 05:56:43;;;;;;;37.92;15.93;;;8.00;99.90;;;;;;6153562;23;20448;-74
2023/02/20 05:59:08;;;;;;;32.95;16.40;;;8.00;99.90;;;;;;6155099;23;20001;-74
2023/02/20 06:01:34;;;;;;;37.72;17.02;;;8.00;99.90;;;;;;6155735;23;20449;-74
2023/02/20 06:04:02;;;;;;;33.88;14.85;;;8.00;99.90;;;;;;6155429;23;20001;-74
2023/02/20 06:06:33;;;;;;;33.90;15.40;;;8.00;99.90;;;;;;6155426;23;20011;-75
2023/02/20 06:08:59;;;;;;;40.38;15.52;;;8.00;99.90;;;;;;6154080;23;20033;-75
2023/02/20 06:11:25;;;;;;;40.95;16.33;;;8.10;99.90;;;;;;6152982;23;20080;-75
2023/02/20 06:13:50;;;;;;;34.00;15.10;;;8.20;99.90;;;;;;6155325;23;20078;-75
2023/02/20 06:16:23;;;;;;;31.67;14.20;;;8.20;99.90;;;;;;6155428;23;20096;-75
2023/02/20 06:18:49;;;;;;;32.50;14.00;;;8.20;99.90;;;;;;6153408;23;20005;-74
2023/02/20 06:21:15;;;;;;;36.25;14.38;;;8.10;99.90;;;;;;6152917;23;20200;-74
2023/02/20 06:23:44;;;;;;;35.10;15.05;;;8.10;99.90;;;;;;6155159;23;20330;-75
2023/02/20 06:26:11;;;;;;;34.42;15.70;;;8.10;99.90;;;;;;6154590;23;20025;-75
2023/02/20 06:28:38;;;;;;;27.65;14.18;;;8.10;99.90;;;;;;6155560;23;20382;-74
2023/02/20 06:31:04;;;;;;;35.80;14.57;;;8.10;99.90;;;;;;6155485;23;20013;-75
2023/02/20 06:33:30;;;;;;;26.75;13.93;;;8.20;99.90;;;;;;6152945;23;19997;-75
2023/02/20 06:35:56;;;;;;;39.03;15.35;;;8.10;99.90;;;;;;6154465;23;20010;-74
2023/02/20 06:38:22;;;;;;;35.60;15.07;;;8.10;99.90;;;;;;6153761;23;20117;-74
2023/02/20 06:40:47;;;;;;;32.10;13.82;;;8.10;99.90;;;;;;6154284;23;20322;-74
2023/02/20 06:43:13;;;;;;;31.95;15.60;;;8.20;99.90;;;;;;6153959;23;20011;-74
2023/02/20 06:45:38;;;;;;;34.20;14.55;;;8.30;99.90;;;;;;6129428;23;20028;-74
2023/02/20 06:48:04;;;;;;;32.88;14.82;;;8.20;99.90;;;;;;6154994;23;20756;-74
2023/02/20 06:50:30;;;;;;;35.72;14.68;;;8.30;99.90;;;;;;6154124;23;20048;-74
2023/02/20 06:52:55;;;;;;;35.13;13.82;;;8.20;99.90;;;;;;6152390;23;20056;-74
2023/02/20 06:55:21;;;;;;;31.55;15.25;;;8.30;99.90;;;;;;6154565;23;20415;-75
2023/02/20 06:57:48;;;;;;;37.97;14.80;;;8.30;99.90;;;;;;6154884;23;19997;-75
2023/02/20 07:00:14;;;;;;;45.47;16.15;;;8.40;99.90;;;;;;6153281;23;20006;-75
2023/02/20 07:02:40;;;;;;;37.08;15.18;;;8.40;99.90;;;;;;6154952;23;20339;-75
2023/02/20 07:05:07;;;;;;;32.83;15.68;;;8.30;99.90;;;;;;6154117;23;20006;-75
2023/02/20 07:07:33;;;;;;;29.90;15.05;;;8.40;99.90;;;;;;6154188;23;20002;-75
2023/02/20 07:10:00;;;;;;;35.03;15.63;;;8.30;99.90;;;;;;6154386;23;20041;-74
2023/02/20 07:12:29;;;;;;;34.35;14.63;;;8.30;99.90;;;;;;6153452;23;20033;-75
2023/02/20 07:14:55;;;;;;;30.35;15.15;;;8.30;99.90;;;;;;6153922;23;20447;-75
2023/02/20 07:17:20;;;;;;;34.35;14.55;;;8.40;99.90;;;;;;6154276;23;20009;-74
2023/02/20 07:19:46;;;;;;;30.23;14.82;;;8.30;99.90;;;;;;6152156;23;20008;-75
2023/02/20 07:22:12;;;;;;;24.35;13.55;;;8.20;99.90;;;;;;6154105;23;20010;-74
2023/02/20 07:24:40;;;;;;;26.73;13.52;;;8.30;99.90;;;;;;6154995;23;20032;-73
2023/02/20 07:27:06;;;;;;;26.27;13.75;;;8.40;99.90;;;;;;6154643;23;20032;-74
2023/02/20 07:29:32;;;;;;;29.08;12.05;;;8.40;99.90;;;;;;6153719;23;20009;-73
2023/02/20 07:31:57;;;;;;;24.95;11.82;;;8.40;99.90;;;;;;6153553;23;19998;-75
2023/02/20 07:34:23;;;;;;;27.58;13.00;;;8.40;99.90;;;;;;6153492;23;20012;-75
2023/02/20 07:36:48;;;;;;;25.13;11.68;;;8.40;99.90;;;;;;6154674;23;20002;-75
2023/02/20 07:39:14;;;;;;;23.10;11.40;;;8.40;99.90;;;;;;6154013;23;19998;-75
2023/02/20 07:41:41;;;;;;;24.13;11.95;;;8.30;99.90;;;;;;6154795;23;20008;-76
2023/02/20 07:44:06;;;;;;;22.88;12.73;;;8.40;99.90;;;;;;6152816;23;20006;-76
2023/02/20 07:46:32;;;;;;;28.23;13.32;;;8.40;99.90;;;;;;6154517;23;20052;-76
2023/02/20 07:49:03;;;;;;;37.45;14.88;;;8.50;99.90;;;;;;6153644;23;19998;-76
2023/02/20 07:51:30;;;;;;;25.88;13.65;;;8.50;99.90;;;;;;6154965;23;20087;-76
2023/02/20 07:53:55;;;;;;;30.98;14.25;;;8.50;99.90;;;;;;6154376;23;20083;-76
2023/02/20 07:56:22;;;;;;;26.63;12.65;;;8.60;99.90;;;;;;6154551;23;20430;-76
2023/02/20 07:58:48;;;;;;;29.67;13.10;;;8.60;99.90;;;;;;6154897;23;20008;-75
2023/02/20 08:01:14;;;;;;;28.67;11.10;;;8.60;99.90;;;;;;6153977;23;20395;-75
2023/02/20 08:03:40;;;;;;;26.90;11.52;;;8.60;99.90;;;;;;6153807;23;20442;-75
2023/02/20 08:06:06;;;;;;;27.02;12.43;;;8.50;99.90;;;;;;6152429;23;20017;-75
2023/02/20 08:08:31;;;;;;;28.67;10.90;;;8.50;99.90;;;;;;6153654;23;20001;-75
2023/02/20 08:10:57;;;;;;;20.45;10.32;;;8.60;99.90;;;;;;6153650;23;20014;-74
2023/02/20 08:13:23;;;;;;;24.23;10.13;;;8.60;99.90;;;;;;6153876;23;20081;-74
2023/02/20 08:15:48;;;;;;;17.13;10.65;;;8.60;99.90;;;;;;6153122;23;20037;-75
2023/02/20 08:18:15;;;;;;;26.05;10.35;;;8.60;99.90;;;;;;6153874;23;20009;-75
2023/02/20 08:20:41;;;;;;;20.75;10.63;;;8.70;99.90;;;;;;6154588;23;20013;-75
2023/02/20 08:23:17;;;;;;;22.92;11.35;;;8.70;99.90;;;;;;6152621;23;20002;-75
2023/02/20 08:25:43;;;;;;;30.83;11.35;;;8.80;99.90;;;;;;6127403;23;20495;-75
2023/02/20 08:28:09;;;;;;;26.48;11.45;;;8.80;99.90;;;;;;6154680;23;20028;-76
2023/02/20 08:30:34;;;;;;;24.15;11.02;;;8.80;99.90;;;;;;6154334;23;20010;-76
2023/02/20 08:33:04;;;;;;;20.63;10.45;;;8.80;99.90;;;;;;6156289;23;20052;-76
2023/02/20 08:35:33;;;;;;;20.27;10.73;;;8.80;99.90;;;;;;6154984;23;20009;-77
2023/02/20 08:38:00;;;;;;;28.98;11.90;;;8.90;99.90;;;;;;6155911;23;20005;-76
2023/02/20 08:40:26;;;;;;;28.33;11.98;;;8.90;99.90;;;;;;6156541;23;20005;-76
2023/02/20 08:42:51;;;;;;;26.20;10.93;;;9.00;99.90;;;;;;6156036;23;19998;-76
2023/02/20 08:45:17;;;;;;;25.33;10.85;;;9.00;99.90;;;;;;6155204;23;20081;-76
2023/02/20 08:47:43;;;;;;;21.60;11.15;;;9.00;99.90;;;;;;6155642;23;20009;-75
2023/02/20 08:50:09;;;;;;;23.85;10.38;;;9.10;99.90;;;;;;6156180;23;20014;-76
2023/02/20 08:52:35;;;;;;;26.10;11.38;;;9.10;99.90;;;;;;6129241;23;20005;-75
2023/02/20 08:55:00;;;;;;;24.80;9.95;;;9.20;99.90;;;;;;6155364;23;20005;-76
2023/02/20 08:57:26;;;;;;;21.90;12.20;;;9.10;99.90;;;;;;6155366;23;20378;-76
2023/02/20 08:59:51;;;;;;;25.63;12.40;;;9.20;99.90;;;;;;6154609;23;20423;-76
2023/02/20 09:02:20;;;;;;;25.23;11.57;;;9.20;99.90;;;;;;6155452;23;20308;-75
2023/02/20 09:04:46;;;;;;;23.92;11.50;;;9.10;99.90;;;;;;6155934;23;20005;-76
2023/02/20 09:07:13;;;;;;;22.45;11.50;;;9.20;99.90;;;;;;6154820;23;20009;-75
2023/02/20 09:09:38;;;;;;;24.77;11.20;;;9.20;99.90;;;;;;6156180;23;20013;-76
2023/02/20 09:12:04;;;;;;;24.63;12.55;;;9.30;99.90;;;;;;6154062;23;20002;-75
2023/02/20 09:14:30;;;;;;;27.92;12.82;;;9.30;99.90;;;;;;6155133;23;20040;-75
2023/02/20 09:16:56;;;;;;;29.02;11.10;;;9.40;99.90;;;;;;6154768;23;20016;-76
2023/02/20 09:19:22;;;;;;;24.23;11.07;;;9.40;99.90;;;;;;6155860;23;20029;-75
2023/02/20 09:21:48;;;;;;;29.45;12.07;;;9.40;99.90;;;;;;6155486;23;20006;-76
2023/02/20 09:24:15;;;;;;;28.80;12.32;;;9.50;99.90;;;;;;6155146;23;20072;-76
2023/02/20 09:26:40;;;;;;;27.33;12.15;;;9.40;99.90;;;;;;6156352;23;20006;-76
2023/02/20 09:29:06;;;;;;;26.13;11.30;;;9.40;99.90;;;;;;6154520;23;20085;-75
2023/02/20 09:31:31;;;;;;;22.38;12.32;;;9.50;99.90;;;;;;6155275;23;20378;-75
2023/02/20 09:33:57;;;;;;;28.67;12.43;;;9.50;99.90;;;;;;6155384;23;19998;-75
2023/02/20 09:36:23;;;;;;;22.38;10.23;;;9.40;99.90;;;;;;6155523;23;20453;-76
2023/02/20 09:38:48;;;;;;;24.67;11.23;;;9.40;99.90;;;;;;6155757;23;19998;-76
2023/02/20 09:41:40;;;;;;;26.20;11.10;;;9.50;99.90;;;;;;6155408;23;20242;-76
2023/02/20 09:44:46;;;;;;;25.03;11.57;;;9.50;99.90;;;;;;6126455;23;20017;-75
2023/02/20 09:47:44;;;;;;;22.30;10.98;;;9.50;99.90;;;;;;6073782;23;20017;-75
2023/02/20 09:50:17;;;;;;;29.33;11.18;;;9.50;99.90;;;;;;6149393;23;20378;-74
2023/02/20 09:52:47;;;;;;;27.00;11.88;;;9.50;99.90;;;;;;6149930;23;20327;-74
2023/02/20 09:55:20;;;;;;;28.48;11.65;;;9.60;99.90;;;;;;6150518;23;20016;-74
2023/02/20 09:57:48;;;;;;;28.10;12.48;;;9.60;99.90;;;;;;6150535;23;20434;-75
2023/02/20 10:00:36;;;;;;;25.67;11.82;;;9.70;99.90;;;;;;6150754;23;20008;-79
2023/02/20 10:03:10;;;;;;;27.92;11.95;;;9.70;99.90;;;;;;6152202;23;20079;-80
2023/02/20 10:05:36;;;;;;;25.20;11.20;;;9.70;99.90;;;;;;6150477;23;20006;-79
2023/02/20 10:08:02;;;;;;;29.75;12.27;;;9.60;99.90;;;;;;6151395;23;20446;-78
2023/02/20 10:10:33;;;;;;;26.98;11.90;;;9.60;99.90;;;;;;6150862;23;20284;-79
2023/02/20 10:13:17;;;;;;;24.98;11.82;;;9.60;99.90;;;;;;6149232;23;20004;-78
2023/02/20 10:16:20;;;;;;;27.38;12.00;;;9.70;99.90;;;;;;6149104;23;20065;-78
2023/02/20 10:18:54;;;;;;;27.50;12.82;;;9.70;99.90;;;;;;6150641;23;20017;-79
2023/02/20 10:21:35;;;;;;;25.15;12.55;;;9.70;99.90;;;;;;6148842;23;20067;-79
2023/02/20 10:24:29;;;;;;;29.50;13.45;;;9.70;99.90;;;;;;6149979;23;20331;-77
2023/02/20 10:27:14;;;;;;;26.98;12.50;;;9.80;99.90;;;;;;6149162;23;20021;-78
2023/02/20 10:29:40;;;;;;;30.67;12.63;;;9.90;99.90;;;;;;6151300;23;20020;-79
2023/02/20 10:32:11;;;;;;;23.95;12.65;;;9.90;99.90;;;;;;6151225;23;20005;-80
2023/02/20 10:34:43;;;;;;;22.60;12.07;;;9.90;99.90;;;;;;6148184;23;20005;-80
2023/02/20 10:37:23;;;;;;;29.25;11.98;;;9.90;99.90;;;;;;6151395;23;20024;-80
2023/02/20 10:40:04;;;;;;;24.90;12.50;;;9.90;99.90;;;;;;6151151;23;20013;-77
2023/02/20 10:42:38;;;;;;;32.90;13.85;;;10.00;99.90;;;;;;6150572;23;20048;-76
2023/02/20 10:45:35;;;;;;;28.48;11.93;;;10.10;99.90;;;;;;6123468;23;20017;-77
2023/02/20 10:48:05;;;;;;;20.95;11.88;;;10.10;99.90;;;;;;6147944;23;20033;-76
2023/02/20 10:50:40;;;;;;;23.88;12.52;;;10.00;99.90;;;;;;6149201;23;20370;-75
2023/02/20 10:53:38;;;;;;;27.75;12.13;;;10.00;99.90;;;;;;6151142;23;20001;-74
2023/02/20 10:56:07;;;;;;;25.95;12.68;;;10.00;99.90;;;;;;6149959;23;20068;-74
2023/02/20 10:58:51;;;;;;;30.73;13.35;;;10.00;99.90;;;;;;6149814;23;20001;-73
2023/02/20 11:01:23;;;;;;;30.13;12.60;;;9.90;99.90;;;;;;6147349;23;20434;-72
2023/02/20 11:04:11;;;;;;;24.25;12.63;;;9.90;99.90;;;;;;6149823;23;20005;-73
2023/02/20 11:06:52;;;;;;;25.05;12.95;;;10.00;99.90;;;;;;5051415;23;10000982;-73
2023/02/20 11:09:18;;;;;;;29.05;12.25;;;10.00;99.90;;;;;;6121560;23;20426;-74
2023/02/20 11:11:45;;;;;;;20.55;11.80;;;10.10;99.90;;;;;;6094541;23;20021;-73
2023/02/20 11:14:11;;;;;;;27.52;12.10;;;10.10;99.90;;;;;;6095709;23;20411;-72
2023/02/20 11:17:05;;;;;;;26.25;11.60;;;10.10;99.90;;;;;;5041785;23;10000075;-73
2023/02/20 11:19:46;;;;;;;31.95;11.80;;;10.10;99.90;;;;;;6105513;23;20452;-73
2023/02/20 11:22:12;;;;;;;23.10;10.77;;;10.10;99.90;;;;;;6122079;23;20714;-72
2023/02/20 11:24:39;;;;;;;29.00;13.40;;;10.10;99.90;;;;;;6119623;23;20002;-73
2023/02/20 11:27:08;;;;;;;24.35;11.38;;;10.10;99.90;;;;;;6120910;23;20130;-73
2023/02/20 11:29:59;;;;;;;21.75;12.05;;;10.20;99.90;;;;;;6119708;23;20010;-74
2023/02/20 11:32:27;;;;;;;22.73;12.25;;;10.10;99.90;;;;;;6120447;23;20033;-73
2023/02/20 11:35:18;;;;;;;21.08;11.75;;;10.20;99.90;;;;;;6121241;23;20016;-74
2023/02/20 11:38:10;;;;;;;23.10;11.65;;;10.20;99.90;;;;;;6121233;23;20010;-73
2023/02/20 11:40:36;;;;;;;32.53;15.30;;;10.20;99.90;;;;;;6119982;23;20339;-71
2023/02/20 11:43:24;;;;;;;26.40;11.05;;;10.20;99.90;;;;;;6120889;23;20006;-72
2023/02/20 11:46:06;;;;;;;22.33;11.30;;;10.20;99.90;;;;;;6120213;23;20006;-74
2023/02/20 11:48:31;;;;;;;20.77;10.25;;;10.20;99.90;;;;;;6121212;23;20010;-74
2023/02/20 11:50:57;;;;;;;19.38;11.05;;;10.20;99.90;;;;;;6119818;23;20020;-73
2023/02/20 11:53:27;;;;;;;24.77;11.48;;;10.10;99.90;;;;;;6120972;23;20045;-73
2023/02/20 11:56:12;;;;;;;27.25;11.15;;;10.20;99.90;;;;;;6119834;23;20002;-73
2023/02/20 11:58:39;;;;;;;21.30;12.05;;;10.20;99.90;;;;;;6120506;23;20077;-74
2023/02/20 12:01:06;;;;;;;25.65;10.68;;;10.20;99.90;;;;;;6093302;23;20002;-73
2023/02/20 12:03:33;;;;;;;22.05;11.10;;;10.20;99.90;;;;;;6121211;23;20009;-73
2023/02/20 12:06:20;;;;;;;23.50;11.75;;;10.20;99.90;;;;;;6118460;23;20487;-74
2023/02/20 12:08:52;;;;;;;25.08;11.70;;;10.20;99.90;;;;;;6121085;23;20033;-74
2023/02/20 12:11:20;;;;;;;20.30;10.88;;;10.20;99.90;;;;;;6120094;23;20065;-74
2023/02/20 12:13:51;;;;;;;24.35;11.85;;;10.20;99.90;;;;;;6093810;23;20041;-74
2023/02/20 12:16:17;;;;;;;27.38;11.65;;;10.40;99.90;;;;;;6119558;23;20040;-73
2023/02/20 12:18:50;;;;;;;26.75;11.10;;;10.40;99.90;;;;;;6121861;23;20423;-73
2023/02/20 12:21:49;;;;;;;22.88;10.52;;;10.40;99.90;;;;;;6119991;23;20052;-74
2023/02/20 12:24:34;;;;;;;25.08;10.25;;;10.20;99.90;;;;;;6121499;23;20002;-73
2023/02/20 12:27:03;;;;;;;27.13;13.18;;;10.20;99.90;;;;;;6120632;23;20025;-72
2023/02/20 12:29:57;;;;;;;25.45;10.85;;;10.30;99.90;;;;;;6121701;23;20006;-73
2023/02/20 12:32:57;;;;;;;27.30;11.77;;;10.40;99.90;;;;;;6120799;23;20002;-73
2023/02/20 12:35:34;;;;;;;27.27;11.57;;;10.30;99.90;;;;;;6056926;23;20068;-73
2023/02/20 12:38:31;;;;;;;21.70;10.70;;;10.30;99.90;;;;;;6118049;23;20056;-74
2023/02/20 12:41:08;;;;;;;19.02;11.35;;;10.30;99.90;;;;;;6119701;23;20006;-72
2023/02/20 12:43:52;;;;;;;19.90;10.35;;;10.30;99.90;;;;;;6121279;23;20722;-72
2023/02/20 12:46:30;;;;;;;22.85;11.73;;;10.30;99.90;;;;;;6120031;23;20014;-73
2023/02/20 12:49:14;;;;;;;29.48;10.20;;;10.40;99.90;;;;;;6120708;23;20005;-72
2023/02/20 12:52:25;;;;;;;24.98;11.35;;;10.40;99.90;;;;;;6119445;23;20118;-72
2023/02/20 12:55:13;;;;;;;24.90;11.00;;;10.40;99.90;;;;;;6102243;23;20021;-74
2023/02/20 12:58:13;;;;;;;20.17;10.95;;;10.50;99.90;;;;;;6120825;23;20001;-72
2023/02/20 13:01:00;;;;;;;23.38;11.85;;;10.50;99.90;;;;;;6120918;23;20072;-73
2023/02/20 13:04:03;;;;;;;20.58;10.82;;;10.40;99.90;;;;;;6119624;23;20002;-73
2023/02/20 13:06:42;;;;;;;21.58;10.10;;;10.50;99.90;;;;;;6117913;23;20002;-73
2023/02/20 13:09:30;;;;;;;25.17;11.32;;;10.50;99.90;;;;;;6121096;23;20081;-72
2023/02/20 13:12:01;;;;;;;29.27;12.18;;;10.60;99.90;;;;;;6118900;23;20010;-72